Terminal Aerodrome Forecast
Issued by NWS Wilmington, NC

Home | Current Version | Previous Version | Text Only | Print | Product List | Glossary On
Versions: 1 2 3 4 5 6 7 8 9 10 11 12 13 14
000
FTUS42 KILM 312300
TAFILM
TAF
KILM 312325Z 0100/0124 08008KT P6SM BKN120 OVC200
     FM010300 07006KT P6SM VCSH BKN025 OVC050
     FM010600 08005KT 6SM -SHRA SCT020 OVC050
      TEMPO 0107/0111 3SM SHRA BKN020
     FM011700 12008KT P6SM VCTS SCT025 BKN040CB=

USA.gov is the U.S. government's official web portal to all federal, state and local government web resources and services.